createdAt,value
2023-04-17T00:00:33.781Z,57.22
2023-04-17T00:03:37.766Z,57.20
2023-04-17T00:06:43.153Z,61.65
2023-04-17T00:09:45.701Z,55.03
2023-04-17T00:12:48.524Z,60.95
2023-04-17T00:15:51.065Z,54.55
2023-04-17T00:18:54.989Z,61.53
2023-04-17T00:21:57.568Z,65.95
2023-04-17T00:25:00.186Z,58.13
2023-04-17T00:28:02.699Z,65.30
2023-04-17T00:31:05.764Z,61.80
2023-04-17T00:34:09.623Z,67.78
2023-04-17T00:37:12.224Z,61.17
2023-04-17T00:40:15.329Z,60.72
2023-04-17T00:43:17.950Z,57.95
2023-04-17T00:46:20.540Z,51.75
2023-04-17T00:49:24.498Z,52.80
2023-04-17T00:52:28.792Z,52.60
2023-04-17T00:55:31.870Z,55.78
2023-04-17T00:58:34.449Z,65.07
2023-04-17T01:01:37.067Z,63.63
2023-04-17T01:04:41.007Z,69.78
2023-04-17T01:07:43.583Z,70.82
2023-04-17T01:10:46.259Z,70.43
2023-04-17T01:13:49.051Z,65.43
2023-04-17T01:16:51.633Z,60.40
2023-04-17T01:19:55.643Z,70.72
2023-04-17T01:22:58.444Z,67.50
2023-04-17T01:26:02.279Z,67.15
2023-04-17T01:29:04.796Z,66.97
2023-04-17T01:32:07.303Z,75.20
2023-04-17T01:35:10.736Z,73.15
2023-04-17T01:38:13.296Z,78.93
2023-04-17T01:41:17.136Z,71.13
2023-04-17T01:44:19.684Z,66.53
2023-04-17T01:47:22.479Z,66.38
2023-04-17T01:50:25.060Z,67.18
2023-04-17T01:53:27.641Z,67.78
2023-04-17T01:56:31.595Z,65.03
2023-04-17T01:59:34.164Z,59.15
2023-04-17T02:02:36.912Z,61.47
2023-04-17T02:05:39.610Z,55.78
2023-04-17T02:08:42.146Z,54.17
2023-04-17T02:11:46.364Z,57.63
2023-04-17T02:14:48.894Z,53.90
2023-04-17T02:17:51.649Z,51.22
2023-04-17T02:20:54.414Z,57.05
2023-04-17T02:23:57.010Z,63.42
2023-04-17T02:27:00.921Z,68.28
2023-04-17T02:30:03.683Z,55.28
2023-04-17T02:33:06.227Z,67.07
2023-04-17T02:36:09.339Z,70.85
2023-04-17T02:39:12.110Z,69.25
2023-04-17T02:42:16.116Z,87.18
2023-04-17T02:45:18.621Z,84.45
2023-04-17T02:48:21.152Z,90.35
2023-04-17T02:51:23.672Z,91.25
2023-04-17T02:54:26.268Z,73.10
2023-04-17T02:57:30.157Z,68.63
2023-04-17T03:00:32.843Z,60.38
2023-04-17T03:03:38.756Z,65.05
2023-04-17T03:06:41.993Z,64.28
2023-04-17T03:09:45.618Z,68.97
2023-04-17T03:12:49.474Z,65.53
2023-04-17T03:15:51.990Z,67.30
2023-04-17T03:18:54.555Z,62.13
2023-04-17T03:21:57.116Z,82.20
2023-04-17T03:24:59.640Z,84.55
2023-04-17T03:28:03.483Z,83.03
2023-04-17T03:31:06.417Z,85.78
2023-04-17T03:34:08.966Z,74.07
2023-04-17T03:37:11.549Z,62.60
2023-04-17T03:40:14.351Z,62.28
2023-04-17T03:43:18.359Z,60.15
2023-04-17T03:46:21.002Z,50.17
2023-04-17T03:49:23.613Z,47.78
2023-04-17T03:52:26.244Z,59.17
2023-04-17T03:55:28.814Z,58.08
2023-04-17T03:58:32.751Z,54.92
2023-04-17T04:01:38.613Z,68.22
2023-04-17T04:04:41.385Z,58.75
2023-04-17T04:07:45.174Z,73.93
2023-04-17T04:10:47.768Z,69.25
2023-04-17T04:13:51.624Z,68.90
2023-04-17T04:16:54.193Z,73.53
2023-04-17T04:19:56.760Z,72.78
2023-04-17T04:22:59.319Z,54.88
2023-04-17T04:26:02.575Z,48.53
2023-04-17T04:29:06.525Z,56.05
2023-04-17T04:32:13.582Z,52.83
2023-04-17T04:35:16.726Z,51.40
2023-04-17T04:38:19.360Z,57.53
2023-04-17T04:41:25.190Z,49.42
2023-04-17T04:44:29.070Z,69.50
2023-04-17T04:47:31.731Z,57.65
2023-04-17T04:50:34.353Z,56.92
2023-04-17T04:53:36.924Z,61.33
2023-04-17T04:56:40.046Z,64.10
2023-04-17T04:59:43.915Z,73.93
2023-04-17T05:02:46.634Z,71.32
2023-04-17T05:05:50.450Z,80.88
2023-04-17T05:08:53.004Z,72.28
2023-04-17T05:11:55.567Z,72.03
2023-04-17T05:14:59.451Z,70.25
2023-04-17T05:18:02.085Z,65.07
2023-04-17T05:21:04.889Z,66.22
2023-04-17T05:24:07.793Z,66.55
2023-04-17T05:27:10.391Z,66.18
2023-04-17T05:30:15.840Z,63.00
2023-04-17T05:33:18.409Z,63.78
2023-04-17T05:36:22.223Z,63.42
2023-04-17T05:39:24.751Z,55.75
2023-04-17T05:42:27.268Z,61.22
2023-04-17T05:45:31.263Z,52.70
2023-04-17T05:48:34.035Z,54.90
2023-04-17T05:51:36.586Z,55.53
2023-04-17T05:54:39.124Z,62.80
2023-04-17T05:57:41.673Z,57.67
2023-04-17T06:00:45.529Z,54.67
2023-04-17T06:03:48.499Z,53.10
2023-04-17T06:06:51.491Z,53.60
2023-04-17T06:09:54.083Z,54.10
2023-04-17T06:12:56.690Z,51.17
2023-04-17T06:16:00.698Z,49.13
2023-04-17T06:19:03.318Z,52.33
2023-04-17T06:22:05.954Z,48.90
2023-04-17T06:25:09.284Z,46.33
2023-04-17T06:28:11.818Z,50.83
2023-04-17T06:31:15.844Z,47.45
2023-04-17T06:34:18.469Z,42.33
2023-04-17T06:37:21.018Z,54.03
2023-04-17T06:40:23.586Z,45.80
2023-04-17T06:43:26.071Z,45.55
2023-04-17T06:46:30.032Z,48.70
2023-04-17T06:49:32.641Z,54.15
2023-04-17T06:52:35.280Z,57.95
2023-04-17T06:55:37.818Z,55.13
2023-04-17T06:58:44.487Z,42.45
2023-04-17T07:01:48.666Z,46.22
2023-04-17T07:04:51.536Z,44.80
2023-04-17T07:07:55.199Z,42.20
2023-04-17T07:10:57.776Z,46.33
2023-04-17T07:14:00.386Z,47.58
2023-04-17T07:17:04.841Z,44.38
2023-04-17T07:20:08.512Z,47.35
2023-04-17T07:23:11.131Z,44.20
2023-04-17T07:26:13.704Z,50.58
2023-04-17T07:29:16.338Z,46.40
2023-04-17T07:32:20.347Z,52.78
2023-04-17T07:35:23.264Z,48.25
2023-04-17T07:38:25.983Z,42.80
2023-04-17T07:41:28.591Z,43.45
2023-04-17T07:44:31.146Z,47.00
2023-04-17T07:47:35.088Z,47.33
2023-04-17T07:50:37.708Z,48.30
2023-04-17T07:53:40.403Z,54.80
2023-04-17T07:56:42.986Z,53.53
2023-04-17T07:59:45.646Z,46.13
2023-04-17T08:02:49.721Z,43.55
2023-04-17T08:05:53.950Z,48.28
2023-04-17T08:08:56.827Z,45.35
2023-04-17T08:11:59.350Z,55.83
2023-04-17T08:15:01.963Z,56.03
2023-04-17T08:18:06.217Z,48.42
2023-04-17T08:21:09.202Z,48.25
2023-04-17T08:24:11.790Z,49.88
2023-04-17T08:27:15.108Z,42.53
2023-04-17T08:30:19.304Z,47.40
2023-04-17T08:33:23.413Z,42.50
2023-04-17T08:36:27.037Z,42.58
2023-04-17T08:39:30.056Z,41.05
2023-04-17T08:42:33.034Z,42.40
2023-04-17T08:45:35.580Z,43.10
2023-04-17T08:48:39.435Z,48.25
2023-04-17T08:51:42.524Z,39.58
2023-04-17T08:54:45.107Z,44.47
2023-04-17T08:58:00.996Z,42.80
2023-04-17T09:01:08.717Z,52.97
2023-04-17T09:04:12.922Z,43.17
2023-04-17T09:07:15.888Z,40.47
2023-04-17T09:10:18.435Z,44.85
2023-04-17T09:13:21.867Z,42.60
2023-04-17T09:16:25.626Z,42.38
2023-04-17T09:19:29.642Z,45.63
2023-04-17T09:22:32.175Z,40.05
2023-04-17T09:25:34.734Z,36.30
2023-04-17T09:28:39.476Z,38.70
2023-04-17T09:31:42.848Z,42.28
2023-04-17T09:34:47.133Z,34.95
2023-04-17T09:37:50.756Z,35.72
2023-04-17T09:40:53.332Z,37.22
2023-04-17T09:44:00.946Z,36.15
2023-04-17T09:47:03.997Z,37.40
2023-04-17T09:50:09.836Z,38.63
2023-04-17T09:53:12.966Z,41.72
2023-04-17T09:56:15.473Z,37.83
2023-04-17T09:59:17.982Z,41.72
2023-04-17T10:02:22.553Z,39.88
2023-04-17T10:05:28.781Z,37.10
2023-04-17T10:08:32.241Z,30.85
2023-04-17T10:11:36.474Z,34.78
2023-04-17T10:14:40.088Z,27.58
2023-04-17T10:17:42.626Z,29.67
2023-04-17T10:20:48.563Z,30.25
2023-04-17T10:23:51.223Z,30.65
2023-04-17T10:26:53.792Z,27.10
2023-04-17T10:29:56.916Z,30.92
2023-04-17T10:33:22.226Z,30.95
2023-04-17T10:36:52.523Z,32.60
2023-04-17T10:40:00.676Z,31.25
2023-04-17T10:43:04.495Z,32.28
2023-04-17T10:46:10.385Z,29.25
2023-04-17T10:49:13.291Z,33.28
2023-04-17T10:52:40.116Z,41.63
2023-04-17T10:55:48.671Z,38.05
2023-04-17T10:58:57.600Z,39.38
2023-04-17T11:02:04.617Z,34.78
2023-04-17T11:08:11.586Z,30.52
2023-04-17T11:11:14.598Z,24.88
2023-04-17T11:14:18.791Z,33.25
2023-04-17T11:17:22.307Z,37.15
2023-04-17T11:20:25.473Z,31.15
2023-04-17T11:23:34.489Z,28.73
2023-04-17T11:26:43.149Z,34.85
2023-04-17T11:29:45.777Z,25.60
2023-04-17T11:32:48.318Z,27.02
2023-04-17T11:35:52.296Z,31.60
2023-04-17T11:38:57.850Z,28.58
2023-04-17T11:42:00.569Z,28.92
2023-04-17T11:45:07.870Z,27.63
2023-04-17T11:48:11.450Z,26.42
2023-04-17T11:51:14.037Z,24.50
2023-04-17T11:54:25.840Z,23.35
2023-04-17T11:57:28.439Z,21.20
2023-04-17T12:00:31.708Z,22.98
2023-04-17T12:03:35.522Z,24.95
2023-04-17T12:06:38.597Z,21.98
2023-04-17T12:09:42.504Z,24.38
2023-04-17T12:12:45.507Z,19.52
2023-04-17T12:15:48.140Z,24.02
2023-04-17T12:18:50.760Z,18.88
2023-04-17T12:21:54.312Z,22.42
2023-04-17T12:24:58.283Z,20.13
2023-04-17T12:28:00.833Z,18.95
2023-04-17T12:31:03.962Z,20.40
2023-04-17T12:34:06.584Z,18.75
2023-04-17T12:37:09.183Z,21.70
2023-04-17T12:40:13.217Z,20.35
2023-04-17T12:43:16.031Z,18.45
2023-04-17T12:46:18.614Z,20.48
2023-04-17T12:49:23.468Z,21.25
2023-04-17T12:52:26.108Z,19.15
2023-04-17T12:55:29.972Z,18.90
2023-04-17T12:58:32.894Z,20.58
2023-04-17T13:01:35.539Z,18.05
2023-04-17T13:04:38.254Z,23.52
2023-04-17T13:07:41.093Z,17.63
2023-04-17T13:10:45.044Z,23.08
2023-04-17T13:13:47.600Z,19.10
2023-04-17T13:16:50.875Z,24.38
2023-04-17T13:19:53.697Z,19.95
2023-04-17T13:22:58.322Z,23.00
2023-04-17T13:26:02.772Z,19.38
2023-04-17T13:29:05.297Z,19.20
2023-04-17T13:32:07.892Z,19.95
2023-04-17T13:35:13.085Z,22.95
2023-04-17T13:38:15.681Z,24.55
2023-04-17T13:41:19.557Z,22.38
2023-04-17T13:44:22.149Z,15.43
2023-04-17T13:47:24.756Z,25.42
2023-04-17T13:50:27.438Z,18.27
2023-04-17T13:53:30.034Z,18.10
2023-04-17T13:56:33.953Z,17.88
2023-04-17T13:59:36.554Z,21.23
2023-04-17T14:02:39.215Z,15.88
2023-04-17T14:05:41.862Z,22.65
2023-04-17T14:08:45.100Z,18.77
2023-04-17T14:11:48.961Z,16.52
2023-04-17T14:14:51.522Z,18.60
2023-04-17T14:17:54.151Z,17.30
2023-04-17T14:20:56.857Z,20.55
2023-04-17T14:23:59.372Z,19.15
2023-04-17T14:27:03.650Z,13.95
2023-04-17T14:30:07.382Z,20.52
2023-04-17T14:33:09.917Z,18.83
2023-04-17T14:36:12.441Z,18.52
2023-04-17T14:39:15.210Z,24.73
2023-04-17T14:42:19.270Z,20.25
2023-04-17T14:45:21.776Z,16.70
2023-04-17T14:48:24.596Z,21.40
2023-04-17T14:51:28.360Z,19.92
2023-04-17T14:54:31.027Z,17.58
2023-04-17T14:57:34.937Z,30.35
2023-04-17T15:00:38.270Z,21.95
2023-04-17T15:03:41.694Z,18.88
2023-04-17T15:06:45.776Z,18.08
2023-04-17T15:09:48.292Z,21.85
2023-04-17T15:12:52.222Z,17.15
2023-04-17T15:15:55.121Z,15.30
2023-04-17T15:18:57.681Z,15.35
2023-04-17T15:22:00.223Z,15.45
2023-04-17T15:25:02.766Z,18.58
2023-04-17T15:28:06.668Z,20.40
2023-04-17T15:31:09.227Z,14.07
2023-04-17T15:34:13.416Z,14.88
2023-04-17T15:37:16.151Z,16.85
2023-04-17T15:40:18.678Z,18.38
2023-04-17T15:43:22.668Z,19.67
2023-04-17T15:46:25.206Z,13.98
2023-04-17T15:49:28.392Z,23.77
2023-04-17T15:52:30.936Z,16.55
2023-04-17T15:55:36.198Z,16.85
2023-04-17T15:58:40.069Z,16.10
2023-04-17T16:01:42.638Z,15.90
2023-04-17T16:04:45.389Z,19.13
2023-04-17T16:07:48.031Z,16.80
2023-04-17T16:10:51.128Z,18.55
2023-04-17T16:13:55.050Z,19.02
2023-04-17T16:16:59.833Z,16.23
2023-04-17T16:20:03.574Z,23.90
2023-04-17T16:23:06.133Z,26.50
2023-04-17T16:26:08.649Z,21.50
2023-04-17T16:29:12.691Z,30.15
2023-04-17T16:32:15.460Z,32.83
2023-04-17T16:35:18.208Z,27.08
2023-04-17T16:38:20.705Z,33.75
2023-04-17T16:41:23.319Z,25.42
2023-04-17T16:44:27.838Z,22.75
2023-04-17T16:47:30.438Z,26.77
2023-04-17T16:50:33.073Z,27.60
2023-04-17T16:53:35.587Z,24.58
2023-04-17T16:56:38.180Z,24.60
2023-04-17T16:59:42.062Z,24.33
2023-04-17T17:02:44.699Z,31.88
2023-04-17T17:05:47.357Z,22.45
2023-04-17T17:08:49.939Z,29.75
2023-04-17T17:11:52.520Z,25.70
2023-04-17T17:14:56.453Z,22.58
2023-04-17T17:17:58.997Z,26.33
2023-04-17T17:21:02.015Z,25.23
2023-04-17T17:24:05.003Z,25.55
2023-04-17T17:27:07.559Z,26.05
2023-04-17T17:30:12.730Z,25.17
2023-04-17T17:33:16.951Z,25.95
2023-04-17T17:36:19.524Z,30.90
2023-04-17T17:39:22.392Z,26.55
2023-04-17T17:42:25.110Z,27.90
2023-04-17T17:45:28.971Z,34.72
2023-04-17T17:48:31.531Z,37.08
2023-04-17T17:51:34.072Z,33.90
2023-04-17T17:54:37.301Z,36.22
2023-04-17T17:57:48.810Z,32.80
2023-04-17T18:00:53.688Z,32.67
2023-04-17T18:03:56.432Z,35.03
2023-04-17T18:06:59.168Z,43.08
2023-04-17T18:10:01.700Z,31.35
2023-04-17T18:13:04.308Z,35.13
2023-04-17T18:16:08.789Z,32.75
2023-04-17T18:19:11.322Z,58.05
2023-04-17T18:22:13.888Z,38.47
2023-04-17T18:25:16.626Z,33.78
2023-04-17T18:28:19.226Z,33.88
2023-04-17T18:31:25.123Z,34.53
2023-04-17T18:34:27.760Z,37.10
2023-04-17T18:37:30.291Z,37.30
2023-04-17T18:40:32.825Z,39.50
2023-04-17T18:43:35.457Z,28.73
2023-04-17T18:46:39.394Z,38.85
2023-04-17T18:49:41.920Z,34.58
2023-04-17T18:52:48.740Z,36.03
2023-04-17T18:55:53.560Z,31.38
2023-04-17T18:58:56.100Z,36.67
2023-04-17T19:02:00.191Z,35.33
2023-04-17T19:05:02.806Z,40.22
2023-04-17T19:08:05.568Z,37.45
2023-04-17T19:11:08.139Z,37.50
2023-04-17T19:14:10.847Z,40.80
2023-04-17T19:17:15.883Z,38.95
2023-04-17T19:20:18.511Z,41.33
2023-04-17T19:23:21.071Z,46.30
2023-04-17T19:26:23.559Z,70.03
2023-04-17T19:29:26.261Z,37.53
2023-04-17T19:32:31.696Z,33.85
2023-04-17T19:35:34.483Z,38.20
2023-04-17T19:38:37.068Z,39.33
2023-04-17T19:41:39.648Z,38.80
2023-04-17T19:44:42.178Z,36.15
2023-04-17T19:47:46.051Z,40.30
2023-04-17T19:50:48.671Z,37.88
2023-04-17T19:53:53.150Z,38.50
2023-04-17T19:56:55.723Z,38.05
2023-04-17T19:59:58.312Z,39.08
2023-04-17T20:03:02.446Z,35.60
2023-04-17T20:06:05.271Z,40.25
2023-04-17T20:09:07.971Z,40.33
2023-04-17T20:12:10.549Z,36.08
2023-04-17T20:15:13.129Z,31.17
2023-04-17T20:18:17.312Z,38.58
2023-04-17T20:21:19.882Z,39.92
2023-04-17T20:24:22.476Z,40.03
2023-04-17T20:27:26.456Z,37.35
2023-04-17T20:30:29.254Z,36.28
2023-04-17T20:33:33.209Z,39.78
2023-04-17T20:36:35.774Z,37.28
2023-04-17T20:39:39.230Z,34.80
2023-04-17T20:42:42.250Z,35.47
2023-04-17T20:45:44.909Z,31.10
2023-04-17T20:48:50.198Z,32.75
2023-04-17T20:51:52.811Z,33.05
2023-04-17T20:54:55.686Z,35.80
2023-04-17T20:57:58.241Z,30.80
2023-04-17T21:01:01.823Z,33.65
2023-04-17T21:04:06.028Z,29.98
2023-04-17T21:07:08.659Z,27.13
2023-04-17T21:10:11.253Z,26.73
2023-04-17T21:13:13.816Z,32.20
2023-04-17T21:16:16.402Z,28.80
2023-04-17T21:19:22.506Z,32.80
2023-04-17T21:22:25.069Z,33.15
2023-04-17T21:25:27.667Z,26.75
2023-04-17T21:28:30.299Z,26.70
2023-04-17T21:31:32.904Z,26.75
2023-04-17T21:34:36.839Z,25.90
2023-04-17T21:37:39.394Z,31.85
2023-04-17T21:40:51.122Z,27.73
2023-04-17T21:43:54.651Z,25.20
2023-04-17T21:46:57.171Z,25.48
2023-04-17T21:50:01.096Z,23.23
2023-04-17T21:53:03.610Z,24.50
2023-04-17T21:56:07.115Z,24.42
2023-04-17T21:59:10.060Z,23.35
2023-04-17T22:02:12.682Z,23.98
2023-04-17T22:05:16.631Z,24.63
2023-04-17T22:08:19.184Z,26.45
2023-04-17T22:11:21.770Z,23.02
2023-04-17T22:14:24.280Z,23.73
2023-04-17T22:17:27.005Z,24.67
2023-04-17T22:20:30.940Z,23.20
2023-04-17T22:23:52.075Z,19.75
2023-04-17T22:27:30.852Z,22.65
2023-04-17T22:31:09.586Z,25.33
2023-04-17T22:34:30.532Z,27.13
2023-04-17T22:37:51.936Z,21.83
2023-04-17T22:41:12.136Z,24.30
2023-04-17T22:44:51.007Z,27.35
2023-04-17T22:51:49.794Z,25.92
2023-04-17T22:58:49.715Z,25.55
2023-04-17T23:02:29.800Z,29.35
2023-04-17T23:06:08.460Z,32.45
2023-04-17T23:09:11.168Z,27.20
2023-04-17T23:12:15.105Z,29.50
2023-04-17T23:15:17.597Z,29.88
2023-04-17T23:18:20.147Z,30.10
2023-04-17T23:21:22.761Z,31.42
2023-04-17T23:24:25.767Z,28.38
2023-04-17T23:27:29.695Z,35.22
2023-04-17T23:30:32.257Z,33.40
2023-04-17T23:33:34.819Z,31.33
2023-04-17T23:36:37.433Z,33.30
2023-04-17T23:39:40.466Z,33.85
2023-04-17T23:42:44.560Z,31.48
2023-04-17T23:45:47.137Z,37.22
2023-04-17T23:48:49.678Z,34.90
2023-04-17T23:51:52.228Z,34.80
2023-04-17T23:54:54.813Z,36.47
2023-04-17T23:57:58.782Z,34.17
